createdAt,value
2023-04-19T00:00:09.886Z,26.37
2023-04-19T00:02:38.147Z,26.77
2023-04-19T00:05:06.390Z,28.47
2023-04-19T00:07:33.481Z,28.83
2023-04-19T00:10:00.290Z,28.80
2023-04-19T00:12:27.113Z,27.30
2023-04-19T00:14:53.866Z,28.37
2023-04-19T00:17:21.270Z,27.70
2023-04-19T00:19:48.381Z,28.47
2023-04-19T00:22:15.613Z,30.63
2023-04-19T00:24:42.462Z,28.63
2023-04-19T00:27:09.250Z,30.30
2023-04-19T00:29:36.062Z,28.23
2023-04-19T00:32:04.128Z,29.13
2023-04-19T00:34:30.988Z,29.67
2023-04-19T00:36:58.027Z,29.87
2023-04-19T00:39:24.842Z,27.20
2023-04-19T00:41:52.985Z,27.53
2023-04-19T00:44:19.979Z,28.97
2023-04-19T00:46:47.067Z,29.70
2023-04-19T00:49:20.919Z,27.77
2023-04-19T00:51:51.096Z,27.73
2023-04-19T00:54:19.163Z,28.00
2023-04-19T00:56:48.960Z,27.10
2023-04-19T00:59:17.721Z,27.70
2023-04-19T01:01:44.783Z,27.07
2023-04-19T01:04:11.806Z,26.40
2023-04-19T01:06:41.412Z,27.57
2023-04-19T01:09:11.041Z,30.07
2023-04-19T01:11:43.170Z,30.50
2023-04-19T01:14:10.740Z,31.60
2023-04-19T01:16:39.090Z,30.80
2023-04-19T01:19:06.525Z,28.60
2023-04-19T01:21:33.339Z,31.63
2023-04-19T01:24:00.369Z,30.80
2023-04-19T01:26:27.205Z,32.23
2023-04-19T01:28:54.641Z,30.93
2023-04-19T01:31:21.512Z,31.30
2023-04-19T01:33:48.473Z,32.37
2023-04-19T01:36:15.309Z,32.93
2023-04-19T01:38:42.067Z,30.13
2023-04-19T01:41:09.768Z,30.83
2023-04-19T01:43:36.554Z,33.00
2023-04-19T01:46:03.453Z,32.13
2023-04-19T01:48:30.382Z,33.00
2023-04-19T01:50:58.002Z,33.37
2023-04-19T01:53:24.863Z,29.50
2023-04-19T01:55:51.820Z,30.80
2023-04-19T01:58:20.764Z,31.60
2023-04-19T02:00:47.662Z,31.80
2023-04-19T02:03:14.726Z,30.70
2023-04-19T02:05:42.753Z,34.83
2023-04-19T02:08:09.507Z,34.27
2023-04-19T02:10:36.542Z,35.07
2023-04-19T02:13:03.423Z,34.13
2023-04-19T02:15:30.255Z,36.43
2023-04-19T02:17:57.219Z,32.67
2023-04-19T02:20:24.512Z,33.47
2023-04-19T02:22:51.347Z,32.20
2023-04-19T02:25:19.437Z,34.43
2023-04-19T02:27:46.598Z,33.97
2023-04-19T02:30:13.872Z,32.83
2023-04-19T02:32:40.857Z,33.83
2023-04-19T02:35:08.460Z,35.33
2023-04-19T02:37:35.498Z,35.97
2023-04-19T02:40:02.318Z,33.87
2023-04-19T02:42:29.499Z,34.63
2023-04-19T02:44:56.403Z,34.50
2023-04-19T02:47:24.612Z,32.27
2023-04-19T02:49:51.798Z,35.27
2023-04-19T02:52:19.832Z,34.53
2023-04-19T02:54:46.802Z,33.73
2023-04-19T02:57:13.674Z,33.47
2023-04-19T02:59:42.722Z,34.53
2023-04-19T03:02:09.886Z,36.23
2023-04-19T03:04:37.506Z,35.43
2023-04-19T03:07:04.373Z,33.83
2023-04-19T03:09:31.191Z,35.53
2023-04-19T03:11:58.402Z,35.47
2023-04-19T03:14:25.318Z,34.60
2023-04-19T03:16:52.291Z,34.40
2023-04-19T03:19:19.185Z,33.30
2023-04-19T03:21:50.385Z,31.63
2023-04-19T03:24:27.642Z,34.30
2023-04-19T03:26:54.729Z,34.13
2023-04-19T03:29:26.288Z,34.60
2023-04-19T03:32:03.355Z,32.27
2023-04-19T03:34:30.629Z,34.17
2023-04-19T03:36:57.448Z,32.97
2023-04-19T03:39:25.149Z,34.83
2023-04-19T03:41:59.512Z,33.50
2023-04-19T03:44:35.353Z,32.33
2023-04-19T03:47:04.652Z,32.27
2023-04-19T03:49:37.364Z,32.07
2023-04-19T03:52:05.329Z,31.00
2023-04-19T03:54:33.653Z,31.80
2023-04-19T03:57:01.694Z,33.00
2023-04-19T03:59:28.569Z,31.43
2023-04-19T04:01:56.141Z,31.03
2023-04-19T04:04:23.506Z,32.03
2023-04-19T04:06:50.548Z,30.83
2023-04-19T04:09:17.571Z,31.57
2023-04-19T04:11:44.556Z,31.70
2023-04-19T04:14:12.184Z,32.07
2023-04-19T04:16:39.421Z,32.20
2023-04-19T04:19:07.614Z,30.73
2023-04-19T04:21:37.427Z,31.13
2023-04-19T04:24:07.798Z,32.13
2023-04-19T04:26:44.005Z,31.50
2023-04-19T04:29:19.523Z,31.73
2023-04-19T04:31:46.724Z,32.27
2023-04-19T04:34:17.238Z,30.30
2023-04-19T04:36:50.882Z,32.53
2023-04-19T04:39:19.916Z,31.83
2023-04-19T04:41:49.558Z,31.07
2023-04-19T04:44:16.654Z,32.53
2023-04-19T04:46:45.387Z,29.83
2023-04-19T04:49:16.788Z,32.27
2023-04-19T04:51:43.822Z,30.57
2023-04-19T04:54:10.804Z,31.17
2023-04-19T04:56:38.636Z,32.37
2023-04-19T04:59:05.680Z,33.23
2023-04-19T05:01:36.739Z,31.93
2023-04-19T05:04:04.122Z,31.53
2023-04-19T05:06:32.627Z,33.17
2023-04-19T05:08:59.401Z,31.60
2023-04-19T05:11:32.407Z,34.30
2023-04-19T05:13:59.341Z,31.53
2023-04-19T05:16:27.098Z,32.50
2023-04-19T05:18:54.570Z,32.07
2023-04-19T05:21:22.617Z,31.17
2023-04-19T05:23:49.694Z,29.87
2023-04-19T05:26:16.671Z,30.77
2023-04-19T05:28:45.214Z,31.30
2023-04-19T05:31:21.066Z,31.27
2023-04-19T05:34:05.245Z,29.47
2023-04-19T05:36:32.781Z,29.03
2023-04-19T05:38:59.746Z,30.33
2023-04-19T05:41:26.734Z,28.87
2023-04-19T05:43:53.550Z,26.13
2023-04-19T05:46:21.189Z,28.13
2023-04-19T05:48:48.320Z,26.17
2023-04-19T05:51:28.282Z,25.97
2023-04-19T05:54:28.428Z,27.93
2023-04-19T05:56:55.437Z,26.07
2023-04-19T05:59:22.395Z,24.60
2023-04-19T06:01:49.307Z,24.83
2023-04-19T06:04:17.294Z,25.10
2023-04-19T06:06:44.438Z,24.30
2023-04-19T06:09:15.098Z,25.10
2023-04-19T06:11:49.961Z,24.83
2023-04-19T06:14:18.682Z,24.77
2023-04-19T06:16:46.345Z,22.77
2023-04-19T06:19:13.632Z,22.53
2023-04-19T06:21:40.835Z,21.13
2023-04-19T06:24:07.967Z,20.80
2023-04-19T06:26:34.971Z,22.47
2023-04-19T06:29:01.839Z,20.97
2023-04-19T06:31:28.865Z,21.13
2023-04-19T06:33:55.823Z,20.63
2023-04-19T06:36:22.693Z,19.57
2023-04-19T06:38:50.322Z,20.33
2023-04-19T06:41:17.838Z,19.80
2023-04-19T06:43:44.967Z,19.53
2023-04-19T06:46:14.086Z,19.10
2023-04-19T06:48:41.827Z,20.13
2023-04-19T06:51:09.089Z,19.57
2023-04-19T06:53:36.469Z,18.83
2023-04-19T06:56:06.869Z,20.03
2023-04-19T06:58:35.218Z,19.37
2023-04-19T07:01:04.578Z,19.30
2023-04-19T07:03:32.398Z,19.23
2023-04-19T07:05:59.336Z,19.53
2023-04-19T07:08:35.006Z,18.43
2023-04-19T07:11:06.132Z,18.37
2023-04-19T07:13:32.900Z,18.53
2023-04-19T07:15:59.819Z,17.67
2023-04-19T07:18:26.608Z,17.60
2023-04-19T07:20:53.426Z,17.87
2023-04-19T07:23:20.396Z,18.00
2023-04-19T07:25:47.211Z,16.83
2023-04-19T07:28:14.172Z,17.23
2023-04-19T07:30:41.231Z,17.73
2023-04-19T07:33:08.693Z,17.17
2023-04-19T07:35:35.902Z,17.13
2023-04-19T07:38:02.932Z,17.63
2023-04-19T07:40:30.152Z,16.13
2023-04-19T07:42:57.377Z,17.70
2023-04-19T07:45:24.456Z,16.90
2023-04-19T07:47:51.437Z,17.53
2023-04-19T07:50:18.538Z,18.47
2023-04-19T07:52:45.464Z,16.70
2023-04-19T07:55:12.548Z,16.70
2023-04-19T07:57:39.668Z,17.00
2023-04-19T08:00:07.690Z,16.83
2023-04-19T08:02:49.000Z,17.63
2023-04-19T08:05:17.711Z,17.23
2023-04-19T08:07:45.355Z,17.87
2023-04-19T08:10:13.014Z,16.83
2023-04-19T08:12:50.399Z,16.40
2023-04-19T08:16:03.769Z,16.87
2023-04-19T08:18:11.148Z,17.23
2023-04-19T08:20:38.111Z,17.00
2023-04-19T08:23:18.092Z,16.50
2023-04-19T08:25:48.280Z,16.67
2023-04-19T08:28:15.147Z,16.30
2023-04-19T08:30:44.086Z,16.33
2023-04-19T08:33:13.076Z,15.60
2023-04-19T08:35:41.810Z,16.33
2023-04-19T08:38:09.326Z,16.33
2023-04-19T08:40:41.473Z,16.40
2023-04-19T08:43:08.343Z,15.77
2023-04-19T08:45:36.316Z,15.93
2023-04-19T08:48:04.650Z,15.93
2023-04-19T08:50:38.753Z,16.37
2023-04-19T08:56:03.399Z,15.30
2023-04-19T08:58:46.636Z,15.20
2023-04-19T09:01:34.056Z,15.20
2023-04-19T09:04:21.672Z,14.73
2023-04-19T09:06:52.800Z,15.13
2023-04-19T09:11:58.297Z,14.73
2023-04-19T09:14:27.001Z,15.10
2023-04-19T09:16:54.185Z,14.50
2023-04-19T09:19:25.160Z,15.40
2023-04-19T09:21:54.483Z,14.50
2023-04-19T09:27:13.103Z,14.60
2023-04-19T09:29:40.090Z,14.50
2023-04-19T09:32:07.176Z,14.87
2023-04-19T09:34:34.123Z,15.30
2023-04-19T09:37:21.507Z,14.70
2023-04-19T09:39:54.983Z,14.60
2023-04-19T09:42:38.420Z,14.47
2023-04-19T09:47:38.955Z,15.20
2023-04-19T09:50:21.044Z,14.30
2023-04-19T09:52:51.402Z,14.47
2023-04-19T09:57:49.124Z,14.53
2023-04-19T10:00:16.173Z,14.93
2023-04-19T10:02:44.979Z,14.73
2023-04-19T10:05:20.301Z,15.17
2023-04-19T10:07:49.582Z,14.77
2023-04-19T10:10:21.619Z,15.10
2023-04-19T10:15:23.784Z,14.83
2023-04-19T10:17:51.226Z,14.20
2023-04-19T10:20:24.985Z,13.40
2023-04-19T10:22:51.941Z,13.67
2023-04-19T10:25:19.021Z,13.60
2023-04-19T10:27:46.749Z,13.57
2023-04-19T10:30:24.793Z,13.87
2023-04-19T10:32:59.765Z,13.60
2023-04-19T10:35:33.530Z,13.90
2023-04-19T10:38:11.915Z,13.17
2023-04-19T10:41:01.098Z,13.10
2023-04-19T10:43:33.788Z,13.00
2023-04-19T10:46:21.997Z,14.20
2023-04-19T10:48:55.684Z,14.13
2023-04-19T10:51:47.353Z,13.23
2023-04-19T10:54:34.424Z,14.60
2023-04-19T10:57:08.512Z,13.30
2023-04-19T10:59:37.031Z,12.80
2023-04-19T11:02:26.208Z,13.00
2023-04-19T11:04:53.101Z,13.37
2023-04-19T11:07:21.395Z,13.37
2023-04-19T11:09:49.752Z,13.93
2023-04-19T11:12:21.029Z,13.50
2023-04-19T11:14:53.281Z,12.90
2023-04-19T11:17:32.127Z,13.27
2023-04-19T11:20:03.354Z,13.27
2023-04-19T11:22:33.914Z,12.48
2023-04-19T11:25:07.049Z,12.70
2023-04-19T11:27:34.513Z,12.80
2023-04-19T11:30:11.615Z,12.35
2023-04-19T11:32:49.891Z,12.55
2023-04-19T11:35:25.525Z,12.15
2023-04-19T11:37:53.306Z,12.40
2023-04-19T11:40:22.041Z,12.43
2023-04-19T11:42:55.682Z,12.50
2023-04-19T11:45:36.876Z,12.20
2023-04-19T11:48:07.277Z,12.18
2023-04-19T11:50:44.357Z,12.07
2023-04-19T11:53:16.838Z,12.40
2023-04-19T11:55:48.122Z,12.57
2023-04-19T11:58:29.523Z,12.57
2023-04-19T12:01:00.634Z,12.65
2023-04-19T12:03:27.814Z,12.75
2023-04-19T12:06:08.849Z,12.15
2023-04-19T12:08:38.923Z,12.30
2023-04-19T12:11:06.728Z,12.00
2023-04-19T12:13:34.040Z,12.23
2023-04-19T12:16:01.728Z,12.77
2023-04-19T12:18:41.606Z,12.52
2023-04-19T12:21:08.509Z,12.68
2023-04-19T12:23:35.389Z,12.50
2023-04-19T12:26:08.037Z,12.98
2023-04-19T12:28:35.304Z,12.00
2023-04-19T12:31:02.624Z,12.82
2023-04-19T12:33:30.809Z,12.18
2023-04-19T12:35:57.616Z,12.65
2023-04-19T12:38:24.416Z,12.38
2023-04-19T12:40:51.288Z,12.63
2023-04-19T12:43:18.110Z,12.40
2023-04-19T12:45:44.944Z,12.55
2023-04-19T12:48:11.806Z,11.85
2023-04-19T12:50:38.587Z,12.50
2023-04-19T12:53:06.893Z,12.85
2023-04-19T12:55:33.764Z,12.40
2023-04-19T12:58:00.893Z,12.70
2023-04-19T13:00:27.937Z,12.70
2023-04-19T13:02:55.233Z,13.48
2023-04-19T13:05:22.315Z,13.45
2023-04-19T13:07:49.162Z,13.13
2023-04-19T13:10:16.060Z,12.85
2023-04-19T13:12:42.955Z,13.40
2023-04-19T13:15:10.247Z,12.63
2023-04-19T13:17:38.081Z,13.57
2023-04-19T13:20:08.290Z,13.98
2023-04-19T13:22:35.328Z,13.68
2023-04-19T13:25:02.534Z,13.65
2023-04-19T13:27:29.421Z,13.32
2023-04-19T13:29:56.781Z,13.10
2023-04-19T13:32:23.806Z,13.07
2023-04-19T13:34:50.686Z,13.50
2023-04-19T13:37:17.749Z,13.48
2023-04-19T13:39:44.645Z,13.85
2023-04-19T13:42:12.509Z,14.77
2023-04-19T13:44:39.291Z,15.43
2023-04-19T13:47:06.632Z,14.60
2023-04-19T13:49:33.492Z,14.98
2023-04-19T13:52:00.315Z,15.30
2023-04-19T13:54:27.229Z,14.38
2023-04-19T13:56:54.000Z,14.95
2023-04-19T13:59:21.324Z,14.70
2023-04-19T14:01:48.267Z,14.02
2023-04-19T14:04:15.411Z,14.00
2023-04-19T14:06:42.937Z,14.70
2023-04-19T14:09:09.813Z,14.25
2023-04-19T14:11:38.406Z,14.87
2023-04-19T14:14:05.283Z,15.00
2023-04-19T14:16:32.337Z,14.83
2023-04-19T14:18:59.649Z,14.20
2023-04-19T14:21:27.620Z,14.53
2023-04-19T14:23:54.475Z,14.90
2023-04-19T14:26:21.361Z,14.80
2023-04-19T14:28:48.524Z,15.20
2023-04-19T14:31:15.665Z,14.37
2023-04-19T14:33:42.600Z,14.90
2023-04-19T14:36:09.471Z,14.80
2023-04-19T14:38:36.353Z,14.87
2023-04-19T14:41:03.486Z,14.90
2023-04-19T14:43:30.851Z,15.20
2023-04-19T14:45:57.774Z,15.00
2023-04-19T14:48:24.969Z,15.37
2023-04-19T14:50:51.886Z,16.13
2023-04-19T14:53:18.696Z,15.33
2023-04-19T14:55:45.539Z,15.20
2023-04-19T14:58:12.440Z,14.60
2023-04-19T15:00:39.328Z,14.67
2023-04-19T15:03:06.238Z,14.77
2023-04-19T15:05:36.467Z,15.10
2023-04-19T15:08:03.543Z,15.20
2023-04-19T15:10:30.424Z,15.87
2023-04-19T15:12:58.197Z,15.50
2023-04-19T15:15:25.062Z,15.70
2023-04-19T15:17:52.195Z,16.00
2023-04-19T15:20:19.157Z,15.80
2023-04-19T15:22:46.105Z,15.80
2023-04-19T15:25:12.975Z,16.00
2023-04-19T15:27:39.755Z,16.43
2023-04-19T15:30:07.576Z,16.07
2023-04-19T15:32:36.795Z,16.87
2023-04-19T15:35:04.127Z,16.93
2023-04-19T15:37:30.911Z,17.30
2023-04-19T15:39:57.674Z,16.97
2023-04-19T15:42:24.595Z,16.13
2023-04-19T15:44:51.470Z,16.23
2023-04-19T15:47:18.391Z,16.87
2023-04-19T15:49:47.316Z,17.20
2023-04-19T15:52:14.174Z,17.10
2023-04-19T15:54:41.017Z,16.50
2023-04-19T15:57:07.869Z,16.90
2023-04-19T15:59:34.970Z,16.27
2023-04-19T16:02:01.924Z,16.83
2023-04-19T16:04:29.313Z,17.27
2023-04-19T16:06:56.457Z,17.27
2023-04-19T16:09:23.273Z,17.00
2023-04-19T16:11:50.136Z,17.83
2023-04-19T16:14:17.094Z,18.23
2023-04-19T16:16:43.863Z,17.83
2023-04-19T16:19:10.726Z,17.87
2023-04-19T16:21:37.519Z,18.37
2023-04-19T16:24:04.615Z,18.03
2023-04-19T16:26:31.472Z,18.47
2023-04-19T16:28:59.441Z,18.20
2023-04-19T16:31:26.364Z,18.30
2023-04-19T16:33:53.294Z,17.67
2023-04-19T16:36:20.109Z,18.20
2023-04-19T16:38:46.902Z,18.50
2023-04-19T16:41:13.700Z,17.23
2023-04-19T16:43:40.604Z,18.50
2023-04-19T16:46:07.478Z,18.03
2023-04-19T16:48:34.371Z,17.80
2023-04-19T16:51:01.136Z,17.63
2023-04-19T16:53:27.971Z,17.37
2023-04-19T16:55:56.511Z,18.00
2023-04-19T16:58:23.670Z,17.63
2023-04-19T17:00:50.528Z,17.40
2023-04-19T17:03:17.610Z,17.80
2023-04-19T17:05:44.579Z,18.43
2023-04-19T17:08:12.099Z,18.30
2023-04-19T17:10:38.982Z,17.20
2023-04-19T17:13:05.776Z,17.90
2023-04-19T17:15:32.638Z,17.30
2023-04-19T17:17:59.611Z,17.43
2023-04-19T17:20:26.517Z,18.30
2023-04-19T17:22:53.314Z,17.30
2023-04-19T17:25:22.237Z,16.97
2023-04-19T17:27:49.236Z,19.00
2023-04-19T17:30:16.338Z,17.27
2023-04-19T17:32:43.225Z,18.10
2023-04-19T17:35:10.189Z,17.07
2023-04-19T17:37:37.246Z,18.27
2023-04-19T17:40:04.552Z,16.67
2023-04-19T17:42:31.646Z,17.90
2023-04-19T17:45:00.168Z,17.30
2023-04-19T17:47:27.207Z,17.73
2023-04-19T17:50:05.679Z,18.33
2023-04-19T17:52:32.633Z,18.47
2023-04-19T17:54:59.425Z,18.30
2023-04-19T17:57:28.988Z,17.77
2023-04-19T17:59:55.988Z,16.90
2023-04-19T18:02:23.660Z,17.43
2023-04-19T18:04:50.722Z,18.40
2023-04-19T18:07:17.544Z,17.97
2023-04-19T18:09:44.586Z,17.70
2023-04-19T18:12:11.638Z,17.67
2023-04-19T18:14:38.555Z,18.07
2023-04-19T18:17:06.328Z,17.13
2023-04-19T18:19:33.327Z,17.57
2023-04-19T18:22:01.252Z,17.27
2023-04-19T18:24:28.248Z,17.87
2023-04-19T18:26:55.192Z,17.53
2023-04-19T18:29:27.141Z,17.10
2023-04-19T18:31:55.051Z,17.53
2023-04-19T18:34:21.889Z,17.77
2023-04-19T18:36:48.739Z,17.67
2023-04-19T18:39:17.510Z,16.83
2023-04-19T18:41:44.451Z,17.63
2023-04-19T18:44:26.273Z,17.77
2023-04-19T18:46:58.285Z,17.30
2023-04-19T18:49:25.388Z,16.80
2023-04-19T18:51:52.308Z,17.17
2023-04-19T18:54:22.281Z,17.88
2023-04-19T18:57:19.106Z,16.80
2023-04-19T18:59:36.501Z,16.57
2023-04-19T19:02:03.492Z,17.70
2023-04-19T19:04:46.785Z,17.13
2023-04-19T19:07:34.304Z,17.23
2023-04-19T19:10:09.913Z,17.67
2023-04-19T19:12:45.129Z,17.63
2023-04-19T19:15:12.139Z,16.97
2023-04-19T19:17:39.097Z,16.20
2023-04-19T19:20:06.854Z,17.00
2023-04-19T19:22:34.236Z,17.93
2023-04-19T19:25:01.383Z,17.67
2023-04-19T19:27:28.540Z,17.00
2023-04-19T19:29:55.648Z,16.53
2023-04-19T19:32:22.601Z,18.43
2023-04-19T19:37:20.144Z,18.47
2023-04-19T19:39:46.886Z,17.40
2023-04-19T19:42:16.502Z,17.43
2023-04-19T19:44:43.886Z,18.40
2023-04-19T19:47:11.204Z,18.43
2023-04-19T19:52:08.351Z,17.93
2023-04-19T19:54:35.281Z,17.10
2023-04-19T19:59:34.505Z,18.63
2023-04-19T20:02:03.423Z,18.67
2023-04-19T20:04:32.048Z,17.97
2023-04-19T20:09:28.880Z,16.80
2023-04-19T20:11:55.759Z,17.17
2023-04-19T20:14:23.941Z,16.70
2023-04-19T20:16:52.393Z,16.13
2023-04-19T20:19:19.551Z,16.13
2023-04-19T20:21:49.182Z,17.47
2023-04-19T20:24:15.958Z,17.00
2023-04-19T20:26:42.816Z,17.27
2023-04-19T20:29:09.629Z,16.40
2023-04-19T20:31:36.506Z,15.90
2023-04-19T20:34:03.435Z,16.47
2023-04-19T20:36:31.825Z,15.93
2023-04-19T20:38:59.275Z,16.00
2023-04-19T20:41:27.012Z,17.07
2023-04-19T20:43:56.947Z,15.70
2023-04-19T20:46:23.922Z,14.40
2023-04-19T20:48:50.922Z,17.00
2023-04-19T20:51:17.855Z,16.20
2023-04-19T20:53:44.792Z,16.33
2023-04-19T20:56:11.709Z,16.30
2023-04-19T20:58:39.522Z,15.77
2023-04-19T21:01:06.463Z,15.83
2023-04-19T21:03:33.822Z,15.70
2023-04-19T21:06:00.907Z,15.53
2023-04-19T21:08:27.784Z,15.47
2023-04-19T21:10:54.710Z,16.30
2023-04-19T21:13:21.523Z,16.50
2023-04-19T21:15:48.310Z,13.70
2023-04-19T21:18:15.482Z,15.53
2023-04-19T21:20:42.274Z,15.50
2023-04-19T21:23:09.041Z,15.07
2023-04-19T21:25:35.978Z,14.87
2023-04-19T21:28:02.790Z,14.27
2023-04-19T21:30:29.786Z,16.73
2023-04-19T21:32:56.632Z,14.20
2023-04-19T21:35:23.531Z,14.37
2023-04-19T21:37:50.516Z,14.00
2023-04-19T21:40:17.313Z,15.73
2023-04-19T21:42:44.126Z,14.07
2023-04-19T21:45:11.588Z,14.83
2023-04-19T21:47:38.440Z,14.80
2023-04-19T21:50:05.750Z,14.93
2023-04-19T21:52:32.668Z,16.40
2023-04-19T21:54:59.572Z,14.43
2023-04-19T21:57:27.051Z,14.23
2023-04-19T21:59:54.127Z,14.50
2023-04-19T22:02:21.038Z,16.03
2023-04-19T22:04:49.065Z,17.23
2023-04-19T22:07:18.728Z,14.83
2023-04-19T22:09:46.394Z,14.23
2023-04-19T22:12:13.631Z,15.73
2023-04-19T22:14:40.800Z,17.40
2023-04-19T22:17:09.002Z,15.50
2023-04-19T22:19:35.919Z,15.30
2023-04-19T22:22:02.759Z,14.67
2023-04-19T22:24:29.561Z,15.67
2023-04-19T22:26:57.432Z,14.57
2023-04-19T22:29:24.303Z,16.00
2023-04-19T22:31:51.154Z,15.80
2023-04-19T22:34:18.106Z,15.47
2023-04-19T22:36:45.394Z,17.27
2023-04-19T22:39:12.456Z,14.60
2023-04-19T22:41:39.397Z,14.50
2023-04-19T22:44:06.245Z,14.70
2023-04-19T22:46:33.365Z,14.90
2023-04-19T22:49:00.730Z,15.67
2023-04-19T22:51:27.839Z,15.30
2023-04-19T22:53:54.952Z,15.23
2023-04-19T22:56:21.804Z,15.03
2023-04-19T22:58:48.586Z,15.80
2023-04-19T23:01:15.441Z,15.67
2023-04-19T23:03:42.244Z,14.60
2023-04-19T23:06:09.277Z,14.50
2023-04-19T23:08:36.256Z,16.73
2023-04-19T23:11:03.163Z,15.57
2023-04-19T23:13:29.941Z,17.80
2023-04-19T23:15:57.047Z,17.63
2023-04-19T23:18:23.981Z,14.93
2023-04-19T23:20:50.872Z,17.17
2023-04-19T23:23:19.783Z,16.27
2023-04-19T23:25:46.590Z,14.57
2023-04-19T23:28:13.503Z,14.10
2023-04-19T23:30:40.666Z,14.97
2023-04-19T23:33:07.586Z,15.50
2023-04-19T23:35:34.508Z,14.20
2023-04-19T23:38:01.247Z,13.47
2023-04-19T23:40:28.119Z,17.20
2023-04-19T23:42:54.882Z,14.37
2023-04-19T23:45:21.892Z,16.77
2023-04-19T23:47:49.894Z,17.23
2023-04-19T23:50:16.745Z,15.83
2023-04-19T23:52:43.480Z,14.70
2023-04-19T23:55:10.367Z,13.83
2023-04-19T23:57:37.145Z,13.40
